RYR601W LEBL-EKCH
Flight info
| Callsign | RYR601W |
|---|---|
| Flight time | 2h 27m |
| Altitude | 38000 |
| Route | DALIN DCT PIVUS DCT DIBER DCT ADITA DCT MAXIR DCT LUSOL DCT BODRU DCT OKTET DCT IRMAR DCT KINES DCT VANAS DCT MOBLO DCT UBIMA DCT GILIR DCT PENDU DCT UZCUX/N0405F390 DCT SOSAD DCT OBOKA DCT NIE DCT MEGAR P605 GESKA Z711 MONAK |
| Aircraft | B738/M-SDE2E3FGHIRWXY/LB1 |
Departure
| Time | 2026-05-04 14:34 |
|---|---|
| Airport | Josep Tarradellas Barcelona-El Prat Airport (LEBL) |
Arrival
| Time | 2026-05-04 17:01 |
|---|---|
| Airport | Copenhagen Kastrup Airport (EKCH) |
| Time | Latitude | Longitude | Altitude | Speed | Heading |
|---|---|---|---|---|---|
| 2026-05-04 14:09 | 41.28686 | 2.07652 | 14 ft | 0 kts | 7° |
| 2026-05-04 14:19 | 41.28685 | 2.07652 | 14 ft | 1 kts | 7° |
| 2026-05-04 14:20 | 41.28671 | 2.07649 | 14 ft | 3 kts | 7° |
| 2026-05-04 14:20 | 41.28650 | 2.07646 | 14 ft | 3 kts | 7° |
| 2026-05-04 14:20 | 41.28630 | 2.07643 | 14 ft | 3 kts | 7° |
| 2026-05-04 14:21 | 41.28607 | 2.07639 | 14 ft | 1 kts | 7° |
| 2026-05-04 14:24 | 41.28629 | 2.07675 | 14 ft | 6 kts | 63° |
| 2026-05-04 14:24 | 41.28643 | 2.07724 | 16 ft | 6 kts | 69° |
| 2026-05-04 14:25 | 41.28661 | 2.07770 | 14 ft | 6 kts | 58° |
| 2026-05-04 14:25 | 41.28676 | 2.07802 | 14 ft | 0 kts | 58° |
| 2026-05-04 14:27 | 41.28678 | 2.07806 | 14 ft | 2 kts | 60° |
| 2026-05-04 14:27 | 41.28694 | 2.07854 | 15 ft | 9 kts | 66° |
| 2026-05-04 14:28 | 41.28704 | 2.07932 | 16 ft | 9 kts | 114° |
| 2026-05-04 14:28 | 41.28649 | 2.07973 | 17 ft | 10 kts | 144° |
| 2026-05-04 14:28 | 41.28638 | 2.08058 | 17 ft | 10 kts | 77° |
| 2026-05-04 14:28 | 41.28671 | 2.08150 | 18 ft | 13 kts | 56° |
| 2026-05-04 14:29 | 41.28744 | 2.08370 | 22 ft | 16 kts | 64° |
| 2026-05-04 14:29 | 41.28854 | 2.08703 | 18 ft | 20 kts | 65° |
| 2026-05-04 14:30 | 41.28911 | 2.08864 | 15 ft | 19 kts | 68° |
| 2026-05-04 14:30 | 41.28964 | 2.09021 | 17 ft | 18 kts | 67° |
| 2026-05-04 14:30 | 41.29064 | 2.09320 | 17 ft | 17 kts | 66° |
| 2026-05-04 14:31 | 41.29112 | 2.09461 | 20 ft | 16 kts | 65° |
| 2026-05-04 14:31 | 41.29205 | 2.09727 | 19 ft | 15 kts | 65° |
| 2026-05-04 14:32 | 41.29280 | 2.09976 | 14 ft | 14 kts | 86° |
| 2026-05-04 14:32 | 41.29256 | 2.10095 | 15 ft | 13 kts | 109° |
| 2026-05-04 14:32 | 41.29236 | 2.10204 | 12 ft | 8 kts | 111° |
| 2026-05-04 14:32 | 41.29189 | 2.10224 | 13 ft | 8 kts | 217° |
| 2026-05-04 14:33 | 41.29164 | 2.10157 | 12 ft | 8 kts | 244° |
| 2026-05-04 14:33 | 41.29123 | 2.10036 | 14 ft | 42 kts | 245° |
| 2026-05-04 14:33 | 41.28872 | 2.09309 | 15 ft | 129 kts | 245° |
| 2026-05-04 14:33 | 41.28351 | 2.08031 | 338 ft | 178 kts | 239° |
| 2026-05-04 14:34 | 41.27749 | 2.06426 | 1097 ft | 209 kts | 246° |
| 2026-05-04 14:34 | 41.26765 | 2.04899 | 1763 ft | 229 kts | 210° |
| 2026-05-04 14:34 | 41.25259 | 2.04587 | 2733 ft | 220 kts | 172° |
| 2026-05-04 14:34 | 41.23751 | 2.04778 | 3688 ft | 217 kts | 185° |
| 2026-05-04 14:35 | 41.22270 | 2.04677 | 4511 ft | 222 kts | 185° |
| 2026-05-04 14:35 | 41.20656 | 2.04626 | 4997 ft | 245 kts | 184° |
| 2026-05-04 14:35 | 41.18876 | 2.04606 | 5532 ft | 262 kts | 182° |
| 2026-05-04 14:35 | 41.17035 | 2.04611 | 6395 ft | 267 kts | 180° |
| 2026-05-04 14:36 | 41.15240 | 2.05308 | 7186 ft | 277 kts | 150° |
| 2026-05-04 14:36 | 41.13877 | 2.07134 | 8100 ft | 284 kts | 124° |
| 2026-05-04 14:36 | 41.13193 | 2.09613 | 8921 ft | 294 kts | 100° |
| 2026-05-04 14:36 | 41.13354 | 2.12336 | 9683 ft | 304 kts | 75° |
| 2026-05-04 14:37 | 41.14260 | 2.14907 | 10440 ft | 314 kts | 62° |
| 2026-05-04 14:37 | 41.15458 | 2.17466 | 10659 ft | 340 kts | 59° |
| 2026-05-04 14:37 | 41.16828 | 2.20174 | 10870 ft | 365 kts | 58° |
| 2026-05-04 14:37 | 41.18298 | 2.23023 | 11216 ft | 382 kts | 57° |
| 2026-05-04 14:38 | 41.19811 | 2.25961 | 11842 ft | 388 kts | 58° |
| 2026-05-04 14:38 | 41.21331 | 2.28944 | 12601 ft | 391 kts | 58° |
| 2026-05-04 14:38 | 41.22848 | 2.31958 | 13321 ft | 395 kts | 58° |
| 2026-05-04 14:38 | 41.24376 | 2.35021 | 13953 ft | 401 kts | 58° |
| 2026-05-04 14:39 | 41.25923 | 2.38140 | 14606 ft | 406 kts | 58° |
| 2026-05-04 14:39 | 41.27480 | 2.41292 | 15236 ft | 411 kts | 58° |
| 2026-05-04 14:39 | 41.29051 | 2.44480 | 15890 ft | 414 kts | 58° |
| 2026-05-04 14:40 | 41.32153 | 2.50785 | 17055 ft | 424 kts | 58° |
| 2026-05-04 14:40 | 41.33778 | 2.54084 | 17630 ft | 428 kts | 57° |
| 2026-05-04 14:40 | 41.35419 | 2.57382 | 18404 ft | 425 kts | 57° |
| 2026-05-04 14:40 | 41.37010 | 2.60587 | 19453 ft | 415 kts | 57° |
| 2026-05-04 14:41 | 41.38601 | 2.63822 | 20333 ft | 412 kts | 58° |
| 2026-05-04 14:41 | 41.40124 | 2.66939 | 20825 ft | 418 kts | 58° |
| 2026-05-04 14:41 | 41.43337 | 2.73526 | 21780 ft | 429 kts | 58° |
| 2026-05-04 14:42 | 41.46607 | 2.80247 | 22787 ft | 437 kts | 58° |
| 2026-05-04 14:42 | 41.48267 | 2.83666 | 23245 ft | 441 kts | 58° |
| 2026-05-04 14:42 | 41.49943 | 2.87122 | 23661 ft | 446 kts | 58° |
| 2026-05-04 14:43 | 41.51632 | 2.90606 | 24126 ft | 450 kts | 58° |
| 2026-05-04 14:43 | 41.53338 | 2.94132 | 24569 ft | 454 kts | 58° |
| 2026-05-04 14:43 | 41.55056 | 2.97684 | 24984 ft | 458 kts | 58° |
| 2026-05-04 14:43 | 41.56785 | 3.01265 | 25427 ft | 461 kts | 58° |
| 2026-05-04 14:44 | 41.58532 | 3.04884 | 25844 ft | 464 kts | 58° |
| 2026-05-04 14:44 | 41.60283 | 3.08519 | 26227 ft | 468 kts | 59° |
| 2026-05-04 14:44 | 41.61959 | 3.12000 | 26570 ft | 472 kts | 58° |
| 2026-05-04 14:44 | 41.63758 | 3.15737 | 26932 ft | 476 kts | 58° |
| 2026-05-04 14:45 | 41.65551 | 3.19467 | 27305 ft | 479 kts | 58° |
| 2026-05-04 14:45 | 41.67356 | 3.23222 | 27695 ft | 481 kts | 59° |
| 2026-05-04 14:45 | 41.69172 | 3.27000 | 28033 ft | 484 kts | 58° |
| 2026-05-04 14:45 | 41.70997 | 3.30809 | 28346 ft | 488 kts | 58° |
| 2026-05-04 14:46 | 41.72825 | 3.34650 | 28647 ft | 492 kts | 60° |
| 2026-05-04 14:46 | 41.74462 | 3.38687 | 28975 ft | 494 kts | 67° |
| 2026-05-04 14:46 | 41.75868 | 3.42892 | 29270 ft | 496 kts | 69° |
| 2026-05-04 14:46 | 41.77234 | 3.47157 | 29567 ft | 499 kts | 69° |
| 2026-05-04 14:47 | 41.78599 | 3.51438 | 29862 ft | 502 kts | 70° |
| 2026-05-04 14:47 | 41.79989 | 3.55748 | 30138 ft | 505 kts | 69° |
| 2026-05-04 14:47 | 41.81406 | 3.60084 | 30408 ft | 508 kts | 69° |
| 2026-05-04 14:47 | 41.82833 | 3.64414 | 30695 ft | 510 kts | 69° |
| 2026-05-04 14:48 | 41.84276 | 3.68780 | 30983 ft | 512 kts | 69° |
| 2026-05-04 14:48 | 41.85723 | 3.73160 | 31221 ft | 515 kts | 69° |
| 2026-05-04 14:48 | 41.87176 | 3.77556 | 31513 ft | 516 kts | 69° |
| 2026-05-04 14:48 | 41.88625 | 3.81954 | 31920 ft | 514 kts | 68° |
| 2026-05-04 14:49 | 41.90061 | 3.86317 | 32376 ft | 511 kts | 69° |
| 2026-05-04 14:49 | 41.91493 | 3.90687 | 32727 ft | 510 kts | 69° |
| 2026-05-04 14:49 | 41.92920 | 3.95066 | 32977 ft | 512 kts | 69° |
| 2026-05-04 14:49 | 41.94341 | 3.99446 | 33274 ft | 512 kts | 69° |
| 2026-05-04 14:50 | 41.95758 | 4.03821 | 33592 ft | 511 kts | 69° |
| 2026-05-04 14:50 | 41.97176 | 4.08194 | 33906 ft | 510 kts | 69° |
| 2026-05-04 14:50 | 41.98556 | 4.12445 | 34190 ft | 510 kts | 69° |
| 2026-05-04 14:50 | 41.99975 | 4.16806 | 34488 ft | 509 kts | 69° |
| 2026-05-04 14:51 | 42.01395 | 4.21167 | 34756 ft | 509 kts | 69° |
| 2026-05-04 14:51 | 42.02812 | 4.25512 | 35053 ft | 507 kts | 69° |
| 2026-05-04 14:51 | 42.04223 | 4.29849 | 35371 ft | 506 kts | 69° |
| 2026-05-04 14:51 | 42.05624 | 4.34187 | 35648 ft | 505 kts | 69° |
| 2026-05-04 14:52 | 42.07150 | 4.38437 | 35819 ft | 507 kts | 60° |
| 2026-05-04 14:52 | 42.09105 | 4.42387 | 36069 ft | 505 kts | 52° |
| 2026-05-04 14:52 | 42.11421 | 4.45909 | 36345 ft | 501 kts | 41° |
| 2026-05-04 14:52 | 42.13984 | 4.49062 | 36653 ft | 498 kts | 40° |
| 2026-05-04 14:53 | 42.16573 | 4.52142 | 36880 ft | 497 kts | 39° |
| 2026-05-04 14:53 | 42.19170 | 4.55201 | 37149 ft | 495 kts | 39° |
| 2026-05-04 14:53 | 42.21744 | 4.58241 | 37536 ft | 489 kts | 39° |
| 2026-05-04 14:53 | 42.24286 | 4.61266 | 37901 ft | 485 kts | 39° |
| 2026-05-04 14:54 | 42.29344 | 4.67347 | 37987 ft | 490 kts | 40° |
| 2026-05-04 14:54 | 42.34460 | 4.73540 | 37992 ft | 496 kts | 40° |
| 2026-05-04 14:55 | 42.39599 | 4.79784 | 37991 ft | 498 kts | 40° |
| 2026-05-04 14:55 | 42.44750 | 4.86057 | 37987 ft | 499 kts | 40° |
| 2026-05-04 14:56 | 42.49878 | 4.92316 | 37972 ft | 491 kts | 40° |
| 2026-05-04 14:56 | 42.54923 | 4.98489 | 37993 ft | 488 kts | 40° |
| 2026-05-04 14:57 | 42.59955 | 5.04654 | 37994 ft | 487 kts | 40° |
| 2026-05-04 14:57 | 42.64976 | 5.10820 | 37996 ft | 486 kts | 40° |
| 2026-05-04 14:58 | 42.69146 | 5.15951 | 37990 ft | 486 kts | 40° |
| 2026-05-04 14:58 | 42.74156 | 5.22132 | 37993 ft | 486 kts | 40° |
| 2026-05-04 14:59 | 42.79168 | 5.28328 | 37998 ft | 486 kts | 40° |
| 2026-05-04 15:00 | 42.86671 | 5.37626 | 38004 ft | 486 kts | 40° |
| 2026-05-04 15:00 | 42.91672 | 5.43843 | 38014 ft | 487 kts | 40° |
| 2026-05-04 15:01 | 42.99174 | 5.53192 | 38009 ft | 487 kts | 40° |
| 2026-05-04 15:01 | 43.04172 | 5.59438 | 38008 ft | 486 kts | 40° |
| 2026-05-04 15:02 | 43.09166 | 5.65691 | 38012 ft | 486 kts | 40° |
| 2026-05-04 15:02 | 43.14079 | 5.71850 | 38010 ft | 486 kts | 40° |
| 2026-05-04 15:03 | 43.19052 | 5.78086 | 38014 ft | 486 kts | 41° |
| 2026-05-04 15:03 | 43.23951 | 5.84268 | 38026 ft | 487 kts | 41° |
| 2026-05-04 15:04 | 43.28825 | 5.90454 | 38019 ft | 487 kts | 41° |
| 2026-05-04 15:04 | 43.33795 | 5.96753 | 38021 ft | 487 kts | 41° |
| 2026-05-04 15:05 | 43.38997 | 6.02267 | 38030 ft | 460 kts | 22° |
| 2026-05-04 15:05 | 43.41932 | 6.03922 | 38007 ft | 452 kts | 11° |
| 2026-05-04 15:05 | 43.44902 | 6.04810 | 38016 ft | 440 kts | 359° |
| 2026-05-04 15:06 | 43.51008 | 6.05389 | 38033 ft | 434 kts | 358° |
| 2026-05-04 15:07 | 43.60039 | 6.06175 | 38039 ft | 433 kts | 358° |
| 2026-05-04 15:07 | 43.66051 | 6.06747 | 38044 ft | 433 kts | 358° |
| 2026-05-04 15:08 | 43.72060 | 6.07333 | 38037 ft | 434 kts | 358° |
| 2026-05-04 15:08 | 43.78084 | 6.08621 | 38033 ft | 446 kts | 13° |
| 2026-05-04 15:09 | 43.83768 | 6.12150 | 38038 ft | 456 kts | 23° |
| 2026-05-04 15:09 | 43.89432 | 6.16186 | 38029 ft | 459 kts | 23° |
| 2026-05-04 15:10 | 43.98015 | 6.22151 | 38048 ft | 461 kts | 22° |
| 2026-05-04 15:11 | 44.06671 | 6.28067 | 38040 ft | 464 kts | 22° |
| 2026-05-04 15:11 | 44.12462 | 6.32033 | 38048 ft | 464 kts | 22° |
| 2026-05-04 15:12 | 44.18251 | 6.36006 | 38050 ft | 463 kts | 22° |
| 2026-05-04 15:12 | 44.24018 | 6.40003 | 38061 ft | 462 kts | 23° |
| 2026-05-04 15:13 | 44.29791 | 6.44031 | 38071 ft | 459 kts | 23° |
| 2026-05-04 15:13 | 44.35449 | 6.47965 | 38053 ft | 457 kts | 22° |
| 2026-05-04 15:14 | 44.41134 | 6.51905 | 38062 ft | 455 kts | 22° |
| 2026-05-04 15:14 | 44.46790 | 6.55839 | 38045 ft | 453 kts | 23° |
| 2026-05-04 15:15 | 44.52385 | 6.59755 | 38067 ft | 452 kts | 23° |
| 2026-05-04 15:15 | 44.57991 | 6.63673 | 38062 ft | 450 kts | 23° |
| 2026-05-04 15:16 | 44.66382 | 6.69516 | 38095 ft | 448 kts | 23° |
| 2026-05-04 15:17 | 44.74777 | 6.75368 | 38094 ft | 450 kts | 23° |
| 2026-05-04 15:17 | 44.80581 | 6.78335 | 38108 ft | 439 kts | 6° |
| 2026-05-04 15:17 | 44.83591 | 6.78859 | 38090 ft | 433 kts | 356° |
| 2026-05-04 15:18 | 44.89563 | 6.78560 | 38090 ft | 430 kts | 352° |
| 2026-05-04 15:19 | 44.98519 | 6.77885 | 38089 ft | 430 kts | 352° |
| 2026-05-04 15:19 | 45.07507 | 6.77271 | 38098 ft | 432 kts | 352° |
| 2026-05-04 15:20 | 45.13524 | 6.76868 | 38094 ft | 434 kts | 352° |
| 2026-05-04 15:20 | 45.19515 | 6.76464 | 38097 ft | 434 kts | 352° |
| 2026-05-04 15:21 | 45.25544 | 6.76046 | 38087 ft | 434 kts | 352° |
| 2026-05-04 15:22 | 45.34623 | 6.75439 | 38090 ft | 433 kts | 353° |
| 2026-05-04 15:22 | 45.43598 | 6.74868 | 38102 ft | 433 kts | 353° |
| 2026-05-04 15:23 | 45.49580 | 6.74495 | 38080 ft | 433 kts | 353° |
| 2026-05-04 15:23 | 45.55583 | 6.74105 | 38073 ft | 432 kts | 353° |
| 2026-05-04 15:24 | 45.67546 | 6.73280 | 38085 ft | 430 kts | 353° |
| 2026-05-04 15:25 | 45.73531 | 6.72853 | 38085 ft | 430 kts | 352° |
| 2026-05-04 15:26 | 45.82460 | 6.72239 | 38066 ft | 433 kts | 353° |
| 2026-05-04 15:26 | 45.91421 | 6.71643 | 38082 ft | 437 kts | 353° |
| 2026-05-04 15:27 | 46.00693 | 6.70980 | 38088 ft | 448 kts | 353° |
| 2026-05-04 15:28 | 46.10035 | 6.70314 | 38079 ft | 453 kts | 353° |
| 2026-05-04 15:28 | 46.16124 | 6.68629 | 38083 ft | 438 kts | 338° |
| 2026-05-04 15:29 | 46.18957 | 6.67274 | 38051 ft | 434 kts | 336° |
| 2026-05-04 15:30 | 46.38734 | 6.57487 | 38051 ft | 431 kts | 337° |
| 2026-05-04 15:31 | 46.47268 | 6.53306 | 38047 ft | 432 kts | 336° |
| 2026-05-04 15:32 | 46.61524 | 6.46288 | 38049 ft | 434 kts | 337° |
| 2026-05-04 15:34 | 46.75836 | 6.39196 | 38049 ft | 437 kts | 337° |
| 2026-05-04 15:34 | 46.84490 | 6.34886 | 38040 ft | 439 kts | 337° |
| 2026-05-04 15:35 | 46.93127 | 6.30564 | 38039 ft | 440 kts | 337° |
| 2026-05-04 15:36 | 47.01801 | 6.26195 | 38036 ft | 440 kts | 337° |
| 2026-05-04 15:36 | 47.07552 | 6.23177 | 38016 ft | 436 kts | 332° |
| 2026-05-04 15:37 | 47.12984 | 6.19328 | 38031 ft | 433 kts | 329° |
| 2026-05-04 15:37 | 47.18373 | 6.15334 | 38019 ft | 434 kts | 329° |
| 2026-05-04 15:38 | 47.23778 | 6.11389 | 38020 ft | 434 kts | 330° |
| 2026-05-04 15:38 | 47.29196 | 6.07470 | 38019 ft | 434 kts | 330° |
| 2026-05-04 15:39 | 47.34921 | 6.04545 | 38024 ft | 445 kts | 353° |
| 2026-05-04 15:39 | 47.41061 | 6.05805 | 38027 ft | 454 kts | 15° |
| 2026-05-04 15:40 | 47.44077 | 6.07216 | 38009 ft | 455 kts | 17° |
| 2026-05-04 15:40 | 47.50107 | 6.10129 | 38015 ft | 456 kts | 17° |
| 2026-05-04 15:41 | 47.56171 | 6.12979 | 38021 ft | 457 kts | 16° |
| 2026-05-04 15:41 | 47.62265 | 6.15768 | 38018 ft | 459 kts | 16° |
| 2026-05-04 15:42 | 47.68376 | 6.18539 | 38020 ft | 460 kts | 16° |
| 2026-05-04 15:42 | 47.74508 | 6.21325 | 38019 ft | 461 kts | 16° |
| 2026-05-04 15:43 | 47.80650 | 6.24129 | 38016 ft | 462 kts | 16° |
| 2026-05-04 15:43 | 47.86793 | 6.26939 | 38020 ft | 462 kts | 16° |
| 2026-05-04 15:44 | 47.92943 | 6.29761 | 38019 ft | 462 kts | 16° |
| 2026-05-04 15:44 | 47.99087 | 6.32587 | 38016 ft | 462 kts | 16° |
| 2026-05-04 15:45 | 48.05211 | 6.35410 | 38006 ft | 461 kts | 16° |
| 2026-05-04 15:45 | 48.10303 | 6.37765 | 38013 ft | 460 kts | 16° |
| 2026-05-04 15:46 | 48.16411 | 6.40593 | 38002 ft | 459 kts | 16° |
| 2026-05-04 15:46 | 48.22493 | 6.43416 | 37995 ft | 457 kts | 16° |
| 2026-05-04 15:47 | 48.28520 | 6.46222 | 38004 ft | 456 kts | 16° |
| 2026-05-04 15:47 | 48.34571 | 6.49044 | 38000 ft | 455 kts | 16° |
| 2026-05-04 15:48 | 48.40618 | 6.51872 | 37989 ft | 455 kts | 16° |
| 2026-05-04 15:48 | 48.49688 | 6.56127 | 37993 ft | 455 kts | 17° |
| 2026-05-04 15:49 | 48.55731 | 6.58970 | 37993 ft | 455 kts | 16° |
| 2026-05-04 15:49 | 48.61782 | 6.61824 | 37992 ft | 456 kts | 16° |
| 2026-05-04 15:50 | 48.67839 | 6.64688 | 37991 ft | 456 kts | 16° |
| 2026-05-04 15:50 | 48.73908 | 6.67566 | 37990 ft | 457 kts | 17° |
| 2026-05-04 15:51 | 48.79976 | 6.70449 | 37993 ft | 457 kts | 17° |
| 2026-05-04 15:51 | 48.86048 | 6.73339 | 37991 ft | 458 kts | 17° |
| 2026-05-04 15:52 | 48.92126 | 6.76239 | 37991 ft | 458 kts | 16° |
| 2026-05-04 15:52 | 48.98193 | 6.79142 | 37990 ft | 458 kts | 17° |
| 2026-05-04 15:53 | 49.04279 | 6.82057 | 37990 ft | 458 kts | 17° |
| 2026-05-04 15:53 | 49.10360 | 6.84973 | 37991 ft | 458 kts | 16° |
| 2026-05-04 15:54 | 49.16431 | 6.87882 | 37991 ft | 457 kts | 16° |
| 2026-05-04 15:54 | 49.22463 | 6.90800 | 37985 ft | 457 kts | 17° |
| 2026-05-04 15:55 | 49.28529 | 6.93765 | 37992 ft | 457 kts | 16° |
| 2026-05-04 15:55 | 49.34687 | 6.95898 | 38004 ft | 454 kts | 8° |
| 2026-05-04 15:56 | 49.40960 | 6.97507 | 37999 ft | 454 kts | 7° |
| 2026-05-04 15:56 | 49.47154 | 6.99075 | 37991 ft | 454 kts | 8° |
| 2026-05-04 15:57 | 49.53377 | 7.00706 | 38000 ft | 454 kts | 8° |
| 2026-05-04 15:57 | 49.59663 | 7.02382 | 38094 ft | 462 kts | 8° |
| 2026-05-04 15:58 | 49.65993 | 7.04080 | 38219 ft | 468 kts | 8° |
| 2026-05-04 15:58 | 49.72439 | 7.05815 | 38350 ft | 474 kts | 8° |
| 2026-05-04 15:59 | 49.78966 | 7.07575 | 38479 ft | 478 kts | 8° |
| 2026-05-04 15:59 | 49.85545 | 7.09354 | 38602 ft | 480 kts | 8° |
| 2026-05-04 16:00 | 49.92060 | 7.11124 | 38702 ft | 472 kts | 8° |
| 2026-05-04 16:00 | 49.98479 | 7.12871 | 38813 ft | 467 kts | 8° |
| 2026-05-04 16:01 | 50.01690 | 7.13745 | 38939 ft | 467 kts | 8° |
| 2026-05-04 16:01 | 50.04896 | 7.14618 | 38985 ft | 469 kts | 8° |
| 2026-05-04 16:01 | 50.11375 | 7.16384 | 38999 ft | 475 kts | 8° |
| 2026-05-04 16:02 | 50.17895 | 7.18168 | 39004 ft | 478 kts | 8° |
| 2026-05-04 16:03 | 50.27751 | 7.20876 | 38988 ft | 479 kts | 8° |
| 2026-05-04 16:03 | 50.34259 | 7.22673 | 38991 ft | 471 kts | 8° |
| 2026-05-04 16:04 | 50.40697 | 7.24452 | 38998 ft | 468 kts | 8° |
| 2026-05-04 16:04 | 50.50303 | 7.27110 | 39003 ft | 467 kts | 8° |
| 2026-05-04 16:05 | 50.56728 | 7.28889 | 39004 ft | 468 kts | 8° |
| 2026-05-04 16:06 | 50.66355 | 7.31550 | 39004 ft | 470 kts | 8° |
| 2026-05-04 16:06 | 50.74799 | 7.34653 | 39009 ft | 474 kts | 21° |
| 2026-05-04 16:07 | 50.78643 | 7.37830 | 38996 ft | 466 kts | 32° |
| 2026-05-04 16:08 | 50.89313 | 7.49155 | 38989 ft | 459 kts | 33° |
| 2026-05-04 16:09 | 51.02597 | 7.63046 | 39004 ft | 457 kts | 33° |
| 2026-05-04 16:10 | 51.13257 | 7.74187 | 38991 ft | 460 kts | 33° |
| 2026-05-04 16:11 | 51.23932 | 7.85415 | 38984 ft | 464 kts | 33° |
| 2026-05-04 16:12 | 51.40161 | 8.02611 | 38977 ft | 468 kts | 33° |
| 2026-05-04 16:13 | 51.51016 | 8.14194 | 38972 ft | 468 kts | 33° |
| 2026-05-04 16:14 | 51.61841 | 8.25816 | 38956 ft | 467 kts | 33° |
| 2026-05-04 16:16 | 51.75267 | 8.40319 | 38963 ft | 464 kts | 33° |
| 2026-05-04 16:17 | 51.88619 | 8.54850 | 38964 ft | 462 kts | 33° |
| 2026-05-04 16:18 | 51.99264 | 8.66508 | 38959 ft | 462 kts | 33° |
| 2026-05-04 16:19 | 52.12532 | 8.81136 | 38954 ft | 462 kts | 33° |
| 2026-05-04 16:20 | 52.25815 | 8.95883 | 38945 ft | 463 kts | 33° |
| 2026-05-04 16:22 | 52.39105 | 9.10742 | 38943 ft | 463 kts | 33° |
| 2026-05-04 16:23 | 52.55026 | 9.28666 | 38943 ft | 462 kts | 33° |
| 2026-05-04 16:25 | 52.70813 | 9.46891 | 38945 ft | 462 kts | 34° |
| 2026-05-04 16:26 | 52.89041 | 9.68516 | 38965 ft | 460 kts | 34° |
| 2026-05-04 16:28 | 53.02027 | 9.83993 | 38971 ft | 459 kts | 34° |
| 2026-05-04 16:29 | 53.20110 | 10.05743 | 38981 ft | 461 kts | 34° |
| 2026-05-04 16:31 | 53.32250 | 10.20477 | 38951 ft | 462 kts | 34° |
| 2026-05-04 16:32 | 53.47806 | 10.39512 | 38961 ft | 461 kts | 34° |
| 2026-05-04 16:33 | 53.58111 | 10.52218 | 38968 ft | 461 kts | 34° |
| 2026-05-04 16:34 | 53.65846 | 10.61809 | 38975 ft | 460 kts | 34° |
| 2026-05-04 16:35 | 53.81252 | 10.81040 | 38965 ft | 459 kts | 35° |
| 2026-05-04 16:36 | 53.88953 | 10.90720 | 38967 ft | 459 kts | 35° |
| 2026-05-04 16:37 | 53.94078 | 10.97186 | 38203 ft | 464 kts | 35° |
| 2026-05-04 16:37 | 53.96671 | 11.00465 | 37662 ft | 463 kts | 35° |
| 2026-05-04 16:37 | 54.01836 | 11.07012 | 36585 ft | 462 kts | 34° |
| 2026-05-04 16:38 | 54.06987 | 11.13562 | 35434 ft | 463 kts | 34° |
| 2026-05-04 16:39 | 54.14776 | 11.23502 | 33534 ft | 469 kts | 34° |
| 2026-05-04 16:39 | 54.19975 | 11.30159 | 32188 ft | 474 kts | 34° |
| 2026-05-04 16:40 | 54.25285 | 11.36981 | 30782 ft | 479 kts | 33° |
| 2026-05-04 16:40 | 54.30547 | 11.43762 | 29742 ft | 474 kts | 33° |
| 2026-05-04 16:41 | 54.35809 | 11.50566 | 28679 ft | 468 kts | 33° |
| 2026-05-04 16:41 | 54.43500 | 11.60533 | 27072 ft | 460 kts | 33° |
| 2026-05-04 16:42 | 54.50562 | 11.71645 | 25225 ft | 462 kts | 46° |
| 2026-05-04 16:43 | 54.54768 | 11.79908 | 24155 ft | 455 kts | 46° |
| 2026-05-04 16:43 | 54.58962 | 11.87946 | 23129 ft | 447 kts | 45° |
| 2026-05-04 16:43 | 54.61052 | 11.91869 | 22611 ft | 442 kts | 42° |
| 2026-05-04 16:44 | 54.70723 | 12.03770 | 20666 ft | 421 kts | 30° |
| 2026-05-04 16:45 | 54.75577 | 12.09281 | 19709 ft | 415 kts | 28° |
| 2026-05-04 16:46 | 54.83249 | 12.16719 | 18573 ft | 425 kts | 24° |
| 2026-05-04 16:46 | 54.88393 | 12.21513 | 17920 ft | 420 kts | 25° |
| 2026-05-04 16:47 | 54.93410 | 12.26276 | 17257 ft | 403 kts | 25° |
| 2026-05-04 16:47 | 54.98181 | 12.30858 | 16538 ft | 390 kts | 25° |
| 2026-05-04 16:48 | 55.05129 | 12.37546 | 15412 ft | 375 kts | 25° |
| 2026-05-04 16:48 | 55.07393 | 12.39730 | 15031 ft | 370 kts | 25° |
| 2026-05-04 16:49 | 55.11849 | 12.44034 | 14291 ft | 362 kts | 25° |
| 2026-05-04 16:49 | 55.16209 | 12.48258 | 13529 ft | 355 kts | 25° |
| 2026-05-04 16:50 | 55.20446 | 12.52371 | 12773 ft | 349 kts | 25° |
| 2026-05-04 16:50 | 55.24589 | 12.56402 | 11833 ft | 338 kts | 25° |
| 2026-05-04 16:51 | 55.28578 | 12.60304 | 10886 ft | 324 kts | 25° |
| 2026-05-04 16:51 | 55.30506 | 12.62189 | 10411 ft | 317 kts | 25° |
| 2026-05-04 16:51 | 55.34314 | 12.65917 | 9452 ft | 307 kts | 26° |
| 2026-05-04 16:52 | 55.37986 | 12.69518 | 8503 ft | 297 kts | 25° |
| 2026-05-04 16:52 | 55.39738 | 12.71236 | 8038 ft | 293 kts | 25° |
| 2026-05-04 16:53 | 55.43257 | 12.74697 | 7095 ft | 286 kts | 26° |
| 2026-05-04 16:53 | 55.48379 | 12.79742 | 5664 ft | 277 kts | 26° |
| 2026-05-04 16:54 | 55.50050 | 12.81391 | 5200 ft | 274 kts | 26° |
| 2026-05-04 16:55 | 55.56609 | 12.86628 | 3894 ft | 243 kts | 20° |
| 2026-05-04 16:55 | 55.59574 | 12.88863 | 3412 ft | 224 kts | 19° |
| 2026-05-04 16:56 | 55.62268 | 12.90915 | 2917 ft | 201 kts | 20° |
| 2026-05-04 16:56 | 55.65974 | 12.92476 | 2120 ft | 177 kts | 324° |
| 2026-05-04 16:57 | 55.66761 | 12.90838 | 2109 ft | 177 kts | 304° |
| 2026-05-04 16:57 | 55.68157 | 12.87311 | 1989 ft | 175 kts | 305° |
| 2026-05-04 16:58 | 55.68452 | 12.81142 | 1907 ft | 178 kts | 259° |
| 2026-05-04 16:58 | 55.68093 | 12.79121 | 1678 ft | 179 kts | 248° |
| 2026-05-04 16:59 | 55.67031 | 12.75278 | 1326 ft | 174 kts | 253° |
| 2026-05-04 17:00 | 55.64250 | 12.69458 | 504 ft | 141 kts | 232° |
| 2026-05-04 17:00 | 55.62083 | 12.66026 | 32 ft | 131 kts | 230° |
| 2026-05-04 17:01 | 55.61425 | 12.65022 | 23 ft | 34 kts | 221° |
| 2026-05-04 17:01 | 55.61200 | 12.64388 | 24 ft | 25 kts | 253° |
| 2026-05-04 17:02 | 55.61364 | 12.64206 | 24 ft | 22 kts | 31° |
| 2026-05-04 17:02 | 55.61618 | 12.64495 | 26 ft | 21 kts | 33° |
| 2026-05-04 17:03 | 55.61738 | 12.64634 | 23 ft | 20 kts | 33° |
| 2026-05-04 17:03 | 55.61856 | 12.64769 | 27 ft | 20 kts | 33° |
| 2026-05-04 17:03 | 55.62079 | 12.65025 | 24 ft | 19 kts | 34° |
| 2026-05-04 17:04 | 55.62302 | 12.65197 | 27 ft | 17 kts | 2° |
| 2026-05-04 17:04 | 55.62443 | 12.65417 | 23 ft | 16 kts | 89° |
| 2026-05-04 17:05 | 55.62474 | 12.65756 | 27 ft | 13 kts | 14° |
| 2026-05-04 17:05 | 55.62525 | 12.65758 | 23 ft | 0 kts | 358° |